Buoy 46623

sailwx.info

Track history (hours):
 
Tides and Currents Weather Stations Pressure Air Temp Water Temp Dewpoint Dewpoint Depression Visibility Wind Speed Wind Dir Waves Ship Positions

Drifting buoy 46623

Last reported at 2018-Jan-20 07:00 UTC. Time now 2018-Jan-20 08:55 UTC.
Position N 16°52' W 165°13'.

Date/timePositionNaut miles runAvg speedWind from/ knotsBaromVisibWave heightAir tempDewpointWater temp
2018-Jan-20 07:00N 16°52' W 165°13'1 0.6
2018-Jan-20 06:00N 16°51' W 165°13'1 1.1
2018-Jan-20 05:00N 16°51' W 165°12'1 1.1
2018-Jan-20 04:00N 16°51' W 165°11'2 1.8
2018-Jan-20 03:00N 16°50' W 165°09'0 0.0
2018-Jan-20 02:00N 16°50' W 165°09'4 3.6
2018-Jan-20 01:00N 16°52' W 165°05'1 0.3
2018-Jan-19 21:00N 16°50' W 165°05'1 1.3
2018-Jan-19 20:00N 16°52' W 165°05'2 1.8
2018-Jan-19 19:00N 16°51' W 165°03'0 0.0
2018-Jan-19 17:00N 16°51' W 165°03'2 1.8
2018-Jan-19 16:00N 16°52' W 165°01'0 0.0
2018-Jan-19 14:00N 16°52' W 165°01'0 0.0
2018-Jan-19 13:00N 16°52' W 165°01'4 1.0
2018-Jan-19 09:00N 16°52' W 164°57'1 1.3
2018-Jan-19 08:00N 16°51' W 164°56'0 0.0
2018-Jan-19 07:00N 16°51' W 164°56'2 1.7
2018-Jan-19 06:00N 16°50' W 164°55'1 0.8
2018-Jan-19 05:00N 16°49' W 164°54'0 0.0
2018-Jan-19 04:00N 16°49' W 164°54'2 2.5
2018-Jan-19 03:00N 16°47' W 164°52'0 0.0
2018-Jan-19 02:00N 16°47' W 164°52'6 6.3
2018-Jan-19 01:00N 16°47' W 164°46'0 0.0
2018-Jan-18 21:00N 16°47' W 164°46'1 1.1
2018-Jan-18 20:00N 16°47' W 164°44'0 0.0
2018-Jan-18 19:00N 16°47' W 164°44'1 1.3
2018-Jan-18 18:00N 16°46' W 164°43'2 2.4
2018-Jan-18 17:00N 16°46' W 164°41'1 0.4
2018-Jan-18 15:00N 16°45' W 164°40'0 0.0
2018-Jan-18 14:00N 16°45' W 164°40'6 1.3
2018-Jan-18 09:00N 16°45' W 164°34'1 0.8
2018-Jan-18 08:00N 16°44' W 164°33'1 1.1
2018-Jan-18 07:00N 16°44' W 164°32'1 0.8
2018-Jan-18 06:00N 16°44' W 164°31'1 1.1
2018-Jan-18 05:00N 16°44' W 164°30'1 1.3
2018-Jan-18 04:00N 16°43' W 164°29'2 1.7
2018-Jan-18 03:00N 16°43' W 164°27'5 5.3
2018-Jan-18 02:00N 16°42' W 164°22'5 5.3
2018-Jan-18 01:00N 16°43' W 164°27'7 1.7
2018-Jan-17 21:00N 16°42' W 164°20'1 0.6
2018-Jan-17 20:00N 16°42' W 164°20'1 0.6
2018-Jan-17 19:00N 16°41' W 164°20'1 1.3
2018-Jan-17 18:00N 16°42' W 164°19'2 1.7
2018-Jan-17 17:00N 16°42' W 164°17'1 0.8
2018-Jan-17 16:00N 16°41' W 164°17'1 1.3
2018-Jan-17 15:00N 16°42' W 164°16'0 0.0
2018-Jan-17 14:00N 16°42' W 164°16'6 1.2
2018-Jan-17 09:00N 16°41' W 164°10'1 0.6
2018-Jan-17 08:00N 16°41' W 164°09'1 1.1
2018-Jan-17 07:00N 16°41' W 164°08'1 1.3
2018-Jan-17 06:00N 16°42' W 164°07'1 0.6
2018-Jan-17 05:00N 16°42' W 164°06'1 1.1
2018-Jan-17 04:00N 16°42' W 164°05'3 2.9
2018-Jan-17 03:00N 16°42' W 164°02'7 7.1
2018-Jan-17 02:00N 16°44' W 163°55'7 7.1
2018-Jan-17 01:00N 16°42' W 164°02'7 1.6
2018-Jan-16 21:00N 16°44' W 163°55'2 1.7
2018-Jan-16 20:00N 16°44' W 163°53'16 1.1
2018-Jan-16 06:00N 16°50' W 163°38'1 1.1
2018-Jan-16 05:00N 16°50' W 163°37'1 1.3
2018-Jan-16 04:00N 16°50' W 163°35'2 1.8
2018-Jan-16 03:00N 16°50' W 163°34'5 5.2
2018-Jan-16 02:00N 16°50' W 163°28'5 5.2
2018-Jan-16 01:00N 16°50' W 163°34'5 1.3
2018-Jan-15 21:00N 16°50' W 163°28'1 0.6
2018-Jan-15 20:00N 16°50' W 163°28'4 0.8
2018-Jan-15 15:00N 16°52' W 163°23'1 1.1
2018-Jan-15 14:00N 16°52' W 163°22'0 0.0
2018-Jan-15 13:00N 16°52' W 163°22'0 0.0
2018-Jan-15 12:00N 16°52' W 163°22'3 0.9
2018-Jan-15 08:00N 16°51' W 163°19'2 1.8
2018-Jan-15 07:00N 16°52' W 163°17'0 0.0
2018-Jan-15 06:00N 16°52' W 163°17'1 1.1
2018-Jan-15 05:00N 16°52' W 163°16'0 0.0
2018-Jan-15 04:00N 16°52' W 163°16'6 2.9
2018-Jan-15 02:00N 16°52' W 163°10'0 0.0
2018-Jan-15 01:00N 16°52' W 163°10'1 0.3
2018-Jan-14 21:00N 16°52' W 163°08'1 0.8
2018-Jan-14 20:00N 16°53' W 163°08'1 1.3
2018-Jan-14 19:00N 16°53' W 163°07'0 0.0
2018-Jan-14 18:00N 16°53' W 163°07'2 0.9
2018-Jan-14 16:00N 16°54' W 163°05'0 0.0
2018-Jan-14 15:00N 16°54' W 163°05'1 1.1
2018-Jan-14 14:00N 16°54' W 163°04'0 0.0
2018-Jan-14 13:00N 16°54' W 163°04'5 1.2
2018-Jan-14 09:00N 16°53' W 162°59'2 1.8
2018-Jan-14 08:00N 16°53' W 162°57'1 0.6
2018-Jan-14 07:00N 16°53' W 162°56'1 1.1
2018-Jan-14 06:00N 16°53' W 162°55'1 0.6
2018-Jan-14 05:00N 16°53' W 162°55'1 0.6
2018-Jan-14 04:00N 16°53' W 162°54'2 1.8
2018-Jan-14 03:00N 16°54' W 162°52'2 1.7
2018-Jan-14 02:00N 16°54' W 162°50'0 0.0
2018-Jan-14 01:00N 16°54' W 162°50'0 0.0
2018-Jan-14 00:00N 16°54' W 162°50'23 0.7
2018-Jan-12 15:00N 16°56' W 162°26'1 1.1
2018-Jan-12 14:00N 16°56' W 162°25'0 0.0
2018-Jan-12 13:00N 16°56' W 162°25'5 1.1
2018-Jan-12 09:00N 16°56' W 162°20'2 1.7
2018-Jan-12 08:00N 16°56' W 162°19'0 0.0
2018-Jan-12 07:00N 16°56' W 162°19'2 2.4
2018-Jan-12 06:00N 16°57' W 162°16'0 0.0
2018-Jan-12 05:00N 16°57' W 162°16'1 1.3
2018-Jan-12 04:00N 16°58' W 162°15'0 0.0
2018-Jan-12 03:00N 16°58' W 162°15'2 1.7
2018-Jan-12 02:00N 16°59' W 162°14'3 2.9
2018-Jan-12 01:00N 17°01' W 162°11'1 0.1
2018-Jan-11 20:00N 17°01' W 162°11'1 0.8
2018-Jan-11 19:00N 17°01' W 162°10'1 0.6
2018-Jan-11 18:00N 17°01' W 162°10'1 0.8
2018-Jan-11 17:00N 17°02' W 162°09'1 1.3
2018-Jan-11 16:00N 17°02' W 162°08'0 0.0
2018-Jan-11 15:00N 17°02' W 162°08'0 0.0
2018-Jan-11 14:00N 17°02' W 162°08'0 0.0
2018-Jan-11 13:00N 17°02' W 162°08'6 1.2
2018-Jan-11 08:00N 17°07' W 162°04'1 1.3
2018-Jan-11 07:00N 17°08' W 162°03'0 0.0
2018-Jan-11 06:00N 17°08' W 162°03'0 0.0
2018-Jan-11 05:00N 17°08' W 162°03'2 2.1
2018-Jan-11 04:00N 17°07' W 162°01'0 0.0
2018-Jan-11 03:00N 17°07' W 162°01'1 1.1
2018-Jan-11 02:00N 17°07' W 162°00'3 3.5
2018-Jan-11 01:00N 17°06' W 161°56'1 0.2
2018-Jan-10 21:00N 17°07' W 161°56'2 2.1
2018-Jan-10 20:00N 17°05' W 161°54'0 0.0
2018-Jan-10 19:00N 17°05' W 161°54'1 0.6
2018-Jan-10 18:00N 17°05' W 161°53'2 1.7
2018-Jan-10 17:00N 17°05' W 161°52'0 0.0
2018-Jan-10 16:00N 17°05' W 161°52'1 1.1
2018-Jan-10 15:00N 17°05' W 161°50'0 0.0
2018-Jan-10 14:00N 17°05' W 161°50'0 0.0
2018-Jan-10 13:00N 17°05' W 161°50'4 0.8
2018-Jan-10 08:00N 17°05' W 161°46'1 1.3
2018-Jan-10 07:00N 17°05' W 161°45'  
Track history (hours):
 
Tides and Currents Weather Stations Pressure Air Temp Water Temp Dewpoint Dewpoint Depression Visibility Wind Speed Wind Dir Waves Ship Positions

Drifting buoy 46623

Last reported at 2018-Jan-20 07:00 UTC. Time now 2018-Jan-20 08:55 UTC.
Position N 16°52' W 165°13'.

Date/timePositionNaut miles runAvg speedWind from/ knotsBaromVisibWave heightAir tempDewpointWater temp
2018-Jan-20 07:00N 16°52' W 165°13'1 0.6
2018-Jan-20 06:00N 16°51' W 165°13'1 1.1
2018-Jan-20 05:00N 16°51' W 165°12'1 1.1
2018-Jan-20 04:00N 16°51' W 165°11'2 1.8
2018-Jan-20 03:00N 16°50' W 165°09'0 0.0
2018-Jan-20 02:00N 16°50' W 165°09'4 3.6
2018-Jan-20 01:00N 16°52' W 165°05'1 0.3
2018-Jan-19 21:00N 16°50' W 165°05'1 1.3
2018-Jan-19 20:00N 16°52' W 165°05'2 1.8
2018-Jan-19 19:00N 16°51' W 165°03'0 0.0
2018-Jan-19 17:00N 16°51' W 165°03'2 1.8
2018-Jan-19 16:00N 16°52' W 165°01'0 0.0
2018-Jan-19 14:00N 16°52' W 165°01'0 0.0
2018-Jan-19 13:00N 16°52' W 165°01'4 1.0
2018-Jan-19 09:00N 16°52' W 164°57'1 1.3
2018-Jan-19 08:00N 16°51' W 164°56'0 0.0
2018-Jan-19 07:00N 16°51' W 164°56'2 1.7
2018-Jan-19 06:00N 16°50' W 164°55'1 0.8
2018-Jan-19 05:00N 16°49' W 164°54'0 0.0
2018-Jan-19 04:00N 16°49' W 164°54'2 2.5
2018-Jan-19 03:00N 16°47' W 164°52'0 0.0
2018-Jan-19 02:00N 16°47' W 164°52'6 6.3
2018-Jan-19 01:00N 16°47' W 164°46'0 0.0
2018-Jan-18 21:00N 16°47' W 164°46'1 1.1
2018-Jan-18 20:00N 16°47' W 164°44'0 0.0
2018-Jan-18 19:00N 16°47' W 164°44'1 1.3
2018-Jan-18 18:00N 16°46' W 164°43'2 2.4
2018-Jan-18 17:00N 16°46' W 164°41'1 0.4
2018-Jan-18 15:00N 16°45' W 164°40'0 0.0
2018-Jan-18 14:00N 16°45' W 164°40'6 1.3
2018-Jan-18 09:00N 16°45' W 164°34'1 0.8
2018-Jan-18 08:00N 16°44' W 164°33'1 1.1
2018-Jan-18 07:00N 16°44' W 164°32'1 0.8
2018-Jan-18 06:00N 16°44' W 164°31'1 1.1
2018-Jan-18 05:00N 16°44' W 164°30'1 1.3
2018-Jan-18 04:00N 16°43' W 164°29'2 1.7
2018-Jan-18 03:00N 16°43' W 164°27'5 5.3
2018-Jan-18 02:00N 16°42' W 164°22'5 5.3
2018-Jan-18 01:00N 16°43' W 164°27'7 1.7
2018-Jan-17 21:00N 16°42' W 164°20'1 0.6
2018-Jan-17 20:00N 16°42' W 164°20'1 0.6
2018-Jan-17 19:00N 16°41' W 164°20'1 1.3
2018-Jan-17 18:00N 16°42' W 164°19'2 1.7
2018-Jan-17 17:00N 16°42' W 164°17'1 0.8
2018-Jan-17 16:00N 16°41' W 164°17'1 1.3
2018-Jan-17 15:00N 16°42' W 164°16'0 0.0
2018-Jan-17 14:00N 16°42' W 164°16'6 1.2
2018-Jan-17 09:00N 16°41' W 164°10'1 0.6
2018-Jan-17 08:00N 16°41' W 164°09'1 1.1
2018-Jan-17 07:00N 16°41' W 164°08'1 1.3
2018-Jan-17 06:00N 16°42' W 164°07'1 0.6
2018-Jan-17 05:00N 16°42' W 164°06'1 1.1
2018-Jan-17 04:00N 16°42' W 164°05'3 2.9
2018-Jan-17 03:00N 16°42' W 164°02'7 7.1
2018-Jan-17 02:00N 16°44' W 163°55'7 7.1
2018-Jan-17 01:00N 16°42' W 164°02'7 1.6
2018-Jan-16 21:00N 16°44' W 163°55'2 1.7
2018-Jan-16 20:00N 16°44' W 163°53'16 1.1
2018-Jan-16 06:00N 16°50' W 163°38'1 1.1
2018-Jan-16 05:00N 16°50' W 163°37'1 1.3
2018-Jan-16 04:00N 16°50' W 163°35'2 1.8
2018-Jan-16 03:00N 16°50' W 163°34'5 5.2
2018-Jan-16 02:00N 16°50' W 163°28'5 5.2
2018-Jan-16 01:00N 16°50' W 163°34'5 1.3
2018-Jan-15 21:00N 16°50' W 163°28'1 0.6
2018-Jan-15 20:00N 16°50' W 163°28'4 0.8
2018-Jan-15 15:00N 16°52' W 163°23'1 1.1
2018-Jan-15 14:00N 16°52' W 163°22'0 0.0
2018-Jan-15 13:00N 16°52' W 163°22'0 0.0
2018-Jan-15 12:00N 16°52' W 163°22'3 0.9
2018-Jan-15 08:00N 16°51' W 163°19'2 1.8
2018-Jan-15 07:00N 16°52' W 163°17'0 0.0
2018-Jan-15 06:00N 16°52' W 163°17'1 1.1
2018-Jan-15 05:00N 16°52' W 163°16'0 0.0
2018-Jan-15 04:00N 16°52' W 163°16'6 2.9
2018-Jan-15 02:00N 16°52' W 163°10'0 0.0
2018-Jan-15 01:00N 16°52' W 163°10'1 0.3
2018-Jan-14 21:00N 16°52' W 163°08'1 0.8
2018-Jan-14 20:00N 16°53' W 163°08'1 1.3
2018-Jan-14 19:00N 16°53' W 163°07'0 0.0
2018-Jan-14 18:00N 16°53' W 163°07'2 0.9
2018-Jan-14 16:00N 16°54' W 163°05'0 0.0
2018-Jan-14 15:00N 16°54' W 163°05'1 1.1
2018-Jan-14 14:00N 16°54' W 163°04'0 0.0
2018-Jan-14 13:00N 16°54' W 163°04'5 1.2
2018-Jan-14 09:00N 16°53' W 162°59'2 1.8
2018-Jan-14 08:00N 16°53' W 162°57'1 0.6
2018-Jan-14 07:00N 16°53' W 162°56'1 1.1
2018-Jan-14 06:00N 16°53' W 162°55'1 0.6
2018-Jan-14 05:00N 16°53' W 162°55'1 0.6
2018-Jan-14 04:00N 16°53' W 162°54'2 1.8
2018-Jan-14 03:00N 16°54' W 162°52'2 1.7
2018-Jan-14 02:00N 16°54' W 162°50'0 0.0
2018-Jan-14 01:00N 16°54' W 162°50'0 0.0
2018-Jan-14 00:00N 16°54' W 162°50'23 0.7
2018-Jan-12 15:00N 16°56' W 162°26'1 1.1
2018-Jan-12 14:00N 16°56' W 162°25'0 0.0
2018-Jan-12 13:00N 16°56' W 162°25'5 1.1
2018-Jan-12 09:00N 16°56' W 162°20'2 1.7
2018-Jan-12 08:00N 16°56' W 162°19'0 0.0
2018-Jan-12 07:00N 16°56' W 162°19'2 2.4
2018-Jan-12 06:00N 16°57' W 162°16'0 0.0
2018-Jan-12 05:00N 16°57' W 162°16'1 1.3
2018-Jan-12 04:00N 16°58' W 162°15'0 0.0
2018-Jan-12 03:00N 16°58' W 162°15'2 1.7
2018-Jan-12 02:00N 16°59' W 162°14'3 2.9
2018-Jan-12 01:00N 17°01' W 162°11'1 0.1
2018-Jan-11 20:00N 17°01' W 162°11'1 0.8
2018-Jan-11 19:00N 17°01' W 162°10'1 0.6
2018-Jan-11 18:00N 17°01' W 162°10'1 0.8
2018-Jan-11 17:00N 17°02' W 162°09'1 1.3
2018-Jan-11 16:00N 17°02' W 162°08'0 0.0
2018-Jan-11 15:00N 17°02' W 162°08'0 0.0
2018-Jan-11 14:00N 17°02' W 162°08'0 0.0
2018-Jan-11 13:00N 17°02' W 162°08'6 1.2
2018-Jan-11 08:00N 17°07' W 162°04'1 1.3
2018-Jan-11 07:00N 17°08' W 162°03'0 0.0
2018-Jan-11 06:00N 17°08' W 162°03'0 0.0
2018-Jan-11 05:00N 17°08' W 162°03'2 2.1
2018-Jan-11 04:00N 17°07' W 162°01'0 0.0
2018-Jan-11 03:00N 17°07' W 162°01'1 1.1
2018-Jan-11 02:00N 17°07' W 162°00'3 3.5
2018-Jan-11 01:00N 17°06' W 161°56'1 0.2
2018-Jan-10 21:00N 17°07' W 161°56'2 2.1
2018-Jan-10 20:00N 17°05' W 161°54'0 0.0
2018-Jan-10 19:00N 17°05' W 161°54'1 0.6
2018-Jan-10 18:00N 17°05' W 161°53'2 1.7
2018-Jan-10 17:00N 17°05' W 161°52'0 0.0
2018-Jan-10 16:00N 17°05' W 161°52'1 1.1
2018-Jan-10 15:00N 17°05' W 161°50'0 0.0
2018-Jan-10 14:00N 17°05' W 161°50'0 0.0
2018-Jan-10 13:00N 17°05' W 161°50'4 0.8
2018-Jan-10 08:00N 17°05' W 161°46'1 1.3
2018-Jan-10 07:00N 17°05' W 161°45'  

Dump ship's entire track history